Lancaster, Ohio
Current Conditions -  °F | °C
As of 12:53 PM on Thursday 27 Nov 2014 (Local Time) from KLHQ Reporting Station
Overcast Overcast  
Wind Chill: 24°   Ceiling: 1800
Heat Index: 32°   Visibility: 7mi
Dew Point: 25°   Wind: 10mph
Humidity: 75%   Direction: 310°NW
Pressure: 30.2"   Gusts: NA
Location:  39.71°N, 82.6°W
Report Text: KLHQ 271753Z AUTO 31009KT 7SM BKN018 OVC026 00/M04 A3020 RMK AO2 SLP234 60000 T00001039 10000 21006 50008
Loading
Personal Weather Stations






























Interactive Weather Map New forecast layout! Learn more

10-Day Weather Forecast

Advertisements
Track Severe Weather on mobile